createdAt,value
2023-04-27T00:02:23.441Z,-1.72
2023-04-27T00:04:51.778Z,-1.81
2023-04-27T00:07:20.313Z,-1.82
2023-04-27T00:09:48.498Z,-1.83
2023-04-27T00:12:16.596Z,-1.88
2023-04-27T00:14:44.580Z,-1.84
2023-04-27T00:17:12.952Z,-1.89
2023-04-27T00:19:42.401Z,-1.83
2023-04-27T00:22:11.435Z,-1.96
2023-04-27T00:24:39.540Z,-2.05
2023-04-27T00:27:07.657Z,-2.07
2023-04-27T00:29:35.884Z,-1.97
2023-04-27T00:32:04.082Z,-2.03
2023-04-27T00:34:32.588Z,-2.04
2023-04-27T00:37:02.176Z,-1.92
2023-04-27T00:39:30.191Z,-1.99
2023-04-27T00:41:58.280Z,-1.94
2023-04-27T00:44:29.350Z,-1.91
2023-04-27T00:46:59.344Z,-2.00
2023-04-27T00:49:27.980Z,-2.03
2023-04-27T00:51:57.186Z,-2.06
2023-04-27T00:54:27.636Z,-2.01
2023-04-27T00:56:55.860Z,-2.03
2023-04-27T00:59:24.125Z,-2.01
2023-04-27T01:01:53.835Z,-2.08
2023-04-27T01:04:21.931Z,-2.11
2023-04-27T01:06:50.159Z,-2.12
2023-04-27T01:09:20.095Z,-2.04
2023-04-27T01:11:52.772Z,-1.94
2023-04-27T01:14:22.562Z,-2.04
2023-04-27T01:16:52.753Z,-1.97
2023-04-27T01:19:20.915Z,-2.07
2023-04-27T01:21:48.986Z,-2.16
2023-04-27T01:24:18.636Z,-2.20
2023-04-27T01:26:46.923Z,-2.27
2023-04-27T01:29:15.156Z,-2.27
2023-04-27T01:31:43.328Z,-2.24
2023-04-27T01:34:11.978Z,-2.38
2023-04-27T01:36:40.441Z,-2.36
2023-04-27T01:39:09.980Z,-2.37
2023-04-27T01:41:39.482Z,-2.40
2023-04-27T01:44:07.893Z,-2.37
2023-04-27T01:46:36.051Z,-2.42
2023-04-27T01:49:04.744Z,-2.54
2023-04-27T01:51:33.181Z,-2.54
2023-04-27T01:54:01.437Z,-2.49
2023-04-27T01:56:29.646Z,-2.47
2023-04-27T01:58:59.132Z,-2.49
2023-04-27T02:01:28.372Z,-2.45
2023-04-27T02:03:56.986Z,-2.49
2023-04-27T02:06:25.284Z,-2.46
2023-04-27T02:08:53.502Z,-2.46
2023-04-27T02:11:21.735Z,-2.46
2023-04-27T02:13:52.057Z,-2.49
2023-04-27T02:16:22.012Z,-2.46
2023-04-27T02:18:50.421Z,-2.45
2023-04-27T02:21:18.579Z,-2.40
2023-04-27T02:23:47.027Z,-2.51
2023-04-27T02:26:19.606Z,-2.57
2023-04-27T02:28:51.160Z,-2.56
2023-04-27T02:31:21.136Z,-2.56
2023-04-27T02:33:49.225Z,-2.62
2023-04-27T02:36:18.656Z,-2.68
2023-04-27T02:38:46.803Z,-2.61
2023-04-27T02:41:14.923Z,-2.56
2023-04-27T02:43:42.993Z,-2.51
2023-04-27T02:46:11.151Z,-2.58
2023-04-27T02:48:40.739Z,-2.65
2023-04-27T02:51:08.967Z,-2.67
2023-04-27T02:53:37.267Z,-2.75
2023-04-27T02:56:06.048Z,-2.85
2023-04-27T02:58:34.151Z,-2.82
2023-04-27T03:01:02.775Z,-2.74
2023-04-27T03:03:31.385Z,-2.70
2023-04-27T03:06:00.897Z,-2.82
2023-04-27T03:08:29.204Z,-2.83
2023-04-27T03:10:59.426Z,-2.92
2023-04-27T03:13:28.137Z,-2.84
2023-04-27T03:15:56.385Z,-2.82
2023-04-27T03:18:24.480Z,-2.76
2023-04-27T03:20:52.662Z,-2.79
2023-04-27T03:23:22.108Z,-2.82
2023-04-27T03:25:50.274Z,-2.79
2023-04-27T03:28:18.573Z,-2.76
2023-04-27T03:30:46.935Z,-2.74
2023-04-27T03:33:15.453Z,-2.79
2023-04-27T03:35:43.633Z,-2.82
2023-04-27T03:38:11.754Z,-2.86
2023-04-27T03:40:41.431Z,-2.84
2023-04-27T03:43:09.535Z,-2.82
2023-04-27T03:45:38.157Z,-2.76
2023-04-27T03:48:07.308Z,-2.82
2023-04-27T03:50:36.257Z,-2.71
2023-04-27T03:53:04.438Z,-2.61
2023-04-27T03:55:32.586Z,-2.49
2023-04-27T03:58:02.062Z,-2.31
2023-04-27T04:00:31.445Z,-2.07
2023-04-27T04:03:00.242Z,-2.06
2023-04-27T04:05:30.613Z,-2.22
2023-04-27T04:07:58.748Z,-2.32
2023-04-27T04:10:28.867Z,-2.34
2023-04-27T04:12:57.003Z,-2.36
2023-04-27T04:15:26.635Z,-2.24
2023-04-27T04:17:55.208Z,-2.12
2023-04-27T04:20:23.829Z,-2.10
2023-04-27T04:22:52.105Z,-2.03
2023-04-27T04:25:20.842Z,-1.80
2023-04-27T04:27:49.653Z,-1.67
2023-04-27T04:30:18.244Z,-1.56
2023-04-27T04:32:47.846Z,-1.47
2023-04-27T04:35:17.873Z,-1.38
2023-04-27T04:37:46.996Z,-1.34
2023-04-27T04:40:15.786Z,-1.24
2023-04-27T04:42:43.854Z,-1.03
2023-04-27T04:45:12.972Z,-0.91
2023-04-27T04:47:41.532Z,-0.76
2023-04-27T04:50:13.160Z,-0.65
2023-04-27T04:52:41.636Z,-0.53
2023-04-27T04:55:11.148Z,-0.43
2023-04-27T04:57:39.368Z,-0.34
2023-04-27T05:00:12.062Z,-0.28
2023-04-27T05:02:40.998Z,-0.14
2023-04-27T05:05:11.338Z,0.11
2023-04-27T05:07:39.450Z,0.18
2023-04-27T05:10:08.179Z,0.30
2023-04-27T05:12:36.671Z,0.43
2023-04-27T05:15:06.172Z,0.59
2023-04-27T05:17:34.709Z,0.80
2023-04-27T05:20:06.692Z,0.99
2023-04-27T05:22:36.732Z,1.18
2023-04-27T05:25:05.389Z,1.35
2023-04-27T05:27:33.509Z,1.51
2023-04-27T05:30:02.061Z,1.59
2023-04-27T05:32:30.511Z,1.70
2023-04-27T05:34:58.592Z,1.86
2023-04-27T05:37:26.804Z,1.94
2023-04-27T05:39:56.266Z,2.07
2023-04-27T05:42:24.600Z,2.15
2023-04-27T05:44:52.717Z,2.29
2023-04-27T05:47:21.311Z,2.45
2023-04-27T05:49:52.808Z,2.60
2023-04-27T05:52:21.492Z,2.71
2023-04-27T05:54:50.085Z,2.75
2023-04-27T05:57:19.884Z,2.89
2023-04-27T05:59:48.076Z,2.85
2023-04-27T06:02:16.763Z,3.01
2023-04-27T06:04:45.502Z,3.00
2023-04-27T06:07:16.220Z,3.28
2023-04-27T06:09:44.626Z,3.25
2023-04-27T06:12:12.707Z,3.40
2023-04-27T06:14:42.252Z,3.52
2023-04-27T06:17:11.231Z,3.62
2023-04-27T06:19:39.431Z,3.52
2023-04-27T06:22:07.732Z,3.63
2023-04-27T06:24:36.618Z,3.78
2023-04-27T06:27:05.004Z,3.95
2023-04-27T06:29:33.533Z,4.23
2023-04-27T06:32:06.659Z,4.15
2023-04-27T06:34:35.244Z,4.22
2023-04-27T06:37:03.404Z,4.43
2023-04-27T06:39:32.236Z,4.65
2023-04-27T06:42:00.313Z,4.99
2023-04-27T06:44:28.980Z,5.08
2023-04-27T06:46:57.084Z,5.35
2023-04-27T06:49:26.840Z,5.48
2023-04-27T06:51:54.912Z,5.56
2023-04-27T06:54:23.227Z,6.27
2023-04-27T06:56:51.813Z,7.61
2023-04-27T06:59:19.992Z,8.24
2023-04-27T07:01:48.051Z,8.12
2023-04-27T07:04:16.576Z,8.60
2023-04-27T07:06:46.405Z,8.94
2023-04-27T07:09:26.540Z,9.88
2023-04-27T07:11:57.406Z,9.24
2023-04-27T07:14:26.092Z,9.58
2023-04-27T07:16:54.244Z,8.96
2023-04-27T07:19:22.552Z,7.96
2023-04-27T07:21:52.317Z,7.95
2023-04-27T07:24:20.726Z,8.17
2023-04-27T07:26:49.251Z,8.43
2023-04-27T07:29:27.039Z,8.70
2023-04-27T07:31:56.788Z,8.92
2023-04-27T07:34:25.114Z,8.91
2023-04-27T07:36:55.162Z,7.87
2023-04-27T07:39:23.966Z,8.89
2023-04-27T07:41:52.932Z,10.03
2023-04-27T07:44:21.707Z,10.65
2023-04-27T07:46:50.234Z,10.63
2023-04-27T07:49:18.557Z,10.30
2023-04-27T07:51:46.992Z,10.64
2023-04-27T07:54:16.467Z,11.52
2023-04-27T07:56:44.971Z,9.67
2023-04-27T07:59:15.056Z,11.44
2023-04-27T08:01:44.096Z,11.55
2023-04-27T08:04:14.021Z,10.99
2023-04-27T08:06:44.461Z,8.24
2023-04-27T08:09:13.520Z,7.09
2023-04-27T08:11:43.349Z,7.02
2023-04-27T08:14:13.842Z,6.90
2023-04-27T08:16:42.764Z,7.06
2023-04-27T08:19:12.060Z,7.45
2023-04-27T08:21:40.780Z,7.72
2023-04-27T08:24:08.906Z,7.87
2023-04-27T08:26:37.057Z,8.47
2023-04-27T08:29:19.320Z,9.64
2023-04-27T08:31:53.802Z,9.13
2023-04-27T08:34:24.391Z,9.20
2023-04-27T08:36:52.516Z,9.05
2023-04-27T08:39:21.523Z,8.46
2023-04-27T08:41:49.692Z,8.25
2023-04-27T08:44:19.484Z,7.66
2023-04-27T08:46:47.856Z,7.46
2023-04-27T08:49:17.168Z,7.17
2023-04-27T08:51:45.927Z,7.16
2023-04-27T08:54:14.075Z,6.80
2023-04-27T08:56:42.554Z,6.78
2023-04-27T08:59:16.301Z,6.78
2023-04-27T09:01:48.641Z,6.97
2023-04-27T09:04:18.768Z,7.20
2023-04-27T09:06:49.164Z,7.07
2023-04-27T09:09:24.531Z,7.39
2023-04-27T09:11:52.780Z,7.12
2023-04-27T09:14:22.783Z,7.23
2023-04-27T09:17:00.263Z,9.86
2023-04-27T09:19:30.065Z,10.19
2023-04-27T09:22:06.298Z,10.30
2023-04-27T09:24:34.796Z,10.41
2023-04-27T09:27:05.202Z,9.58
2023-04-27T09:29:34.676Z,9.34
2023-04-27T09:32:17.061Z,8.86
2023-04-27T09:34:46.113Z,8.19
2023-04-27T09:37:15.356Z,8.15
2023-04-27T09:39:44.044Z,8.16
2023-04-27T09:42:13.370Z,8.33
2023-04-27T09:44:41.589Z,8.32
2023-04-27T09:47:11.947Z,8.85
2023-04-27T09:49:40.517Z,9.30
2023-04-27T09:52:08.598Z,8.90
2023-04-27T09:54:38.375Z,8.75
2023-04-27T09:57:18.947Z,8.77
2023-04-27T10:00:07.983Z,8.37
2023-04-27T10:02:53.611Z,8.13
2023-04-27T10:05:48.579Z,8.13
2023-04-27T10:08:17.243Z,8.21
2023-04-27T10:10:49.353Z,7.94
2023-04-27T10:13:25.261Z,8.52
2023-04-27T10:15:54.133Z,8.74
2023-04-27T10:18:31.993Z,8.54
2023-04-27T10:21:11.847Z,8.51
2023-04-27T10:23:48.598Z,9.12
2023-04-27T10:26:23.732Z,9.23
2023-04-27T10:28:59.491Z,9.36
2023-04-27T10:31:31.117Z,9.50
2023-04-27T10:34:09.179Z,9.71
2023-04-27T10:36:38.359Z,9.95
2023-04-27T10:39:17.080Z,12.19
2023-04-27T10:41:53.073Z,10.30
2023-04-27T10:44:26.620Z,11.09
2023-04-27T10:46:56.619Z,12.73
2023-04-27T10:49:28.408Z,13.11
2023-04-27T10:51:59.615Z,13.07
2023-04-27T10:54:29.685Z,12.40
2023-04-27T10:57:03.905Z,11.82
2023-04-27T10:59:32.340Z,11.84
2023-04-27T11:02:00.778Z,12.37
2023-04-27T11:04:41.533Z,11.34
2023-04-27T11:07:11.340Z,11.07
2023-04-27T11:09:40.750Z,10.61
2023-04-27T11:12:14.028Z,9.87
2023-04-27T11:14:42.231Z,9.71
2023-04-27T11:17:10.327Z,9.87
2023-04-27T11:19:47.971Z,9.94
2023-04-27T11:22:17.918Z,10.33
2023-04-27T11:24:50.339Z,10.81
2023-04-27T11:27:19.183Z,10.90
2023-04-27T11:29:47.199Z,9.93
2023-04-27T11:32:23.046Z,9.48
2023-04-27T11:34:54.412Z,10.09
2023-04-27T11:37:25.596Z,9.80
2023-04-27T11:39:54.639Z,9.56
2023-04-27T11:42:24.829Z,9.11
2023-04-27T11:44:54.345Z,9.31
2023-04-27T11:47:23.009Z,11.11
2023-04-27T11:49:54.006Z,11.22
2023-04-27T11:52:24.028Z,10.14
2023-04-27T11:54:56.482Z,10.87
2023-04-27T11:57:29.325Z,10.89
2023-04-27T12:00:00.396Z,10.62
2023-04-27T12:02:29.642Z,9.54
2023-04-27T12:05:00.575Z,9.49
2023-04-27T12:07:29.050Z,9.50
2023-04-27T12:09:58.955Z,9.58
2023-04-27T12:12:29.109Z,9.34
2023-04-27T12:14:58.033Z,9.41
2023-04-27T12:17:26.247Z,9.36
2023-04-27T12:19:54.719Z,9.46
2023-04-27T12:22:24.366Z,10.08
2023-04-27T12:24:52.653Z,9.78
2023-04-27T12:27:20.903Z,10.13
2023-04-27T12:29:49.242Z,9.62
2023-04-27T12:32:17.614Z,9.20
2023-04-27T12:34:45.745Z,9.56
2023-04-27T12:37:14.066Z,9.78
2023-04-27T12:39:43.650Z,9.91
2023-04-27T12:42:11.848Z,9.68
2023-04-27T12:44:41.358Z,9.65
2023-04-27T12:47:11.486Z,9.29
2023-04-27T12:49:43.462Z,9.25
2023-04-27T12:52:11.646Z,9.09
2023-04-27T12:54:39.891Z,9.90
2023-04-27T12:57:09.498Z,10.95
2023-04-27T12:59:38.029Z,11.34
2023-04-27T13:02:07.760Z,11.16
2023-04-27T13:04:36.389Z,10.87
2023-04-27T13:07:04.548Z,10.60
2023-04-27T13:09:32.914Z,9.61
2023-04-27T13:12:01.744Z,9.23
2023-04-27T13:14:33.477Z,9.33
2023-04-27T13:17:02.164Z,9.60
2023-04-27T13:19:30.196Z,10.78
2023-04-27T13:21:58.567Z,9.99
2023-04-27T13:24:29.342Z,10.96
2023-04-27T13:26:57.576Z,10.73
2023-04-27T13:29:25.891Z,11.17
2023-04-27T13:31:56.091Z,10.57
2023-04-27T13:34:24.658Z,10.23
2023-04-27T13:36:52.845Z,11.04
2023-04-27T13:39:22.295Z,10.51
2023-04-27T13:41:50.515Z,10.86
2023-04-27T13:44:18.576Z,10.67
2023-04-27T13:46:47.096Z,10.31
2023-04-27T13:49:16.622Z,9.98
2023-04-27T13:51:45.282Z,10.24
2023-04-27T13:54:13.562Z,10.57
2023-04-27T13:56:42.133Z,10.31
2023-04-27T13:59:10.664Z,9.81
2023-04-27T14:01:40.177Z,9.92
2023-04-27T14:04:08.656Z,9.73
2023-04-27T14:06:38.328Z,9.46
2023-04-27T14:09:06.378Z,9.59
2023-04-27T14:11:45.059Z,9.34
2023-04-27T14:14:21.018Z,9.23
2023-04-27T14:16:51.072Z,10.10
2023-04-27T14:19:20.816Z,10.80
2023-04-27T14:21:51.359Z,10.90
2023-04-27T14:24:19.918Z,11.28
2023-04-27T14:26:48.869Z,11.74
2023-04-27T14:29:17.432Z,10.98
2023-04-27T14:31:46.451Z,10.34
2023-04-27T14:34:15.609Z,10.37
2023-04-27T14:36:43.828Z,10.32
2023-04-27T14:39:14.650Z,10.60
2023-04-27T14:41:42.985Z,9.88
2023-04-27T14:44:11.241Z,9.94
2023-04-27T14:46:39.469Z,9.99
2023-04-27T14:49:07.720Z,10.88
2023-04-27T14:51:35.923Z,11.66
2023-04-27T14:54:04.422Z,11.54
2023-04-27T14:56:34.061Z,11.32
2023-04-27T14:59:02.221Z,10.92
2023-04-27T15:01:30.890Z,10.60
2023-04-27T15:03:59.539Z,10.58
2023-04-27T15:06:28.915Z,10.33
2023-04-27T15:08:57.314Z,10.75
2023-04-27T15:11:25.505Z,11.46
2023-04-27T15:13:55.414Z,11.92
2023-04-27T15:16:23.633Z,11.62
2023-04-27T15:18:52.260Z,11.46
2023-04-27T15:21:20.382Z,11.81
2023-04-27T15:23:48.685Z,11.83
2023-04-27T15:26:17.000Z,11.78
2023-04-27T15:28:45.184Z,11.65
2023-04-27T15:31:14.908Z,11.28
2023-04-27T15:33:42.950Z,10.39
2023-04-27T15:36:11.345Z,10.19
2023-04-27T15:38:39.694Z,10.02
2023-04-27T15:41:08.178Z,10.10
2023-04-27T15:43:36.557Z,9.77
2023-04-27T15:46:05.709Z,9.66
2023-04-27T15:48:35.701Z,10.76
2023-04-27T15:51:04.037Z,11.29
2023-04-27T15:53:32.557Z,11.50
2023-04-27T15:56:00.768Z,12.08
2023-04-27T15:58:29.076Z,12.23
2023-04-27T16:00:57.795Z,11.72
2023-04-27T16:03:27.239Z,11.96
2023-04-27T16:05:57.594Z,12.02
2023-04-27T16:08:27.854Z,12.23
2023-04-27T16:10:56.198Z,12.43
2023-04-27T16:13:25.304Z,11.77
2023-04-27T16:15:53.785Z,11.56
2023-04-27T16:18:22.444Z,11.11
2023-04-27T16:20:50.629Z,10.93
2023-04-27T16:23:20.051Z,11.14
2023-04-27T16:25:48.489Z,10.92
2023-04-27T16:28:18.083Z,11.34
2023-04-27T16:30:46.384Z,10.78
2023-04-27T16:33:14.987Z,10.47
2023-04-27T16:35:43.295Z,10.59
2023-04-27T16:38:11.347Z,10.79
2023-04-27T16:40:40.826Z,10.75
2023-04-27T16:43:09.236Z,10.54
2023-04-27T16:45:38.620Z,10.34
2023-04-27T16:48:06.957Z,10.48
2023-04-27T16:50:35.554Z,10.45
2023-04-27T16:53:07.223Z,10.58
2023-04-27T16:55:35.974Z,10.21
2023-04-27T16:58:05.387Z,10.46
2023-04-27T17:00:33.471Z,10.30
2023-04-27T17:03:01.656Z,10.21
2023-04-27T17:05:29.915Z,10.14
2023-04-27T17:07:58.295Z,10.62
2023-04-27T17:10:26.982Z,10.76
2023-04-27T17:12:56.919Z,10.46
2023-04-27T17:15:28.806Z,10.15
2023-04-27T17:17:57.148Z,9.96
2023-04-27T17:20:25.275Z,9.48
2023-04-27T17:22:53.464Z,9.39
2023-04-27T17:25:22.207Z,9.58
2023-04-27T17:27:50.372Z,9.54
2023-04-27T17:30:18.422Z,9.44
2023-04-27T17:32:48.245Z,8.98
2023-04-27T17:35:16.423Z,8.83
2023-04-27T17:37:44.765Z,8.67
2023-04-27T17:40:14.092Z,8.44
2023-04-27T17:42:42.451Z,8.30
2023-04-27T17:45:11.542Z,8.17
2023-04-27T17:47:39.725Z,7.98
2023-04-27T17:50:10.502Z,7.81
2023-04-27T17:52:38.675Z,7.61
2023-04-27T17:55:07.458Z,7.41
2023-04-27T17:57:35.754Z,7.16
2023-04-27T18:00:04.628Z,6.97
2023-04-27T18:02:38.523Z,6.86
2023-04-27T18:05:07.117Z,6.70
2023-04-27T18:07:37.604Z,6.55
2023-04-27T18:10:06.802Z,6.40
2023-04-27T18:12:35.111Z,6.29
2023-04-27T18:15:05.545Z,6.28
2023-04-27T18:17:35.868Z,6.18
2023-04-27T18:20:09.470Z,6.17
2023-04-27T18:22:41.234Z,6.02
2023-04-27T18:25:10.964Z,5.94
2023-04-27T18:27:39.212Z,5.83
2023-04-27T18:30:09.018Z,5.62
2023-04-27T18:32:37.411Z,5.45
2023-04-27T18:35:06.837Z,5.21
2023-04-27T18:37:35.015Z,4.80
2023-04-27T18:40:06.022Z,4.51
2023-04-27T18:42:34.439Z,4.24
2023-04-27T18:45:02.864Z,3.99
2023-04-27T18:47:32.163Z,3.89
2023-04-27T18:50:00.528Z,3.83
2023-04-27T18:52:28.675Z,3.70
2023-04-27T18:54:56.763Z,3.64
2023-04-27T18:57:26.584Z,3.83
2023-04-27T18:59:54.954Z,3.74
2023-04-27T19:02:25.299Z,3.77
2023-04-27T19:05:10.429Z,3.57
2023-04-27T19:07:41.268Z,3.30
2023-04-27T19:10:10.757Z,3.11
2023-04-27T19:12:40.249Z,3.03
2023-04-27T19:15:09.049Z,3.11
2023-04-27T19:17:37.309Z,3.01
2023-04-27T19:20:06.828Z,3.07
2023-04-27T19:22:37.036Z,3.07
2023-04-27T19:25:06.144Z,3.10
2023-04-27T19:27:34.436Z,3.07
2023-04-27T19:30:05.926Z,2.98
2023-04-27T19:32:34.734Z,2.84
2023-04-27T19:35:03.227Z,2.63
2023-04-27T19:37:31.399Z,2.44
2023-04-27T19:39:59.633Z,2.35
2023-04-27T19:42:28.035Z,2.22
2023-04-27T19:44:56.931Z,2.23
2023-04-27T19:47:26.947Z,2.19
2023-04-27T19:49:58.472Z,2.40
2023-04-27T19:52:27.304Z,2.35
2023-04-27T19:54:55.838Z,2.41
2023-04-27T19:57:23.908Z,2.34
2023-04-27T19:59:52.334Z,2.36
2023-04-27T20:02:20.583Z,2.62
2023-04-27T20:04:50.513Z,2.63
2023-04-27T20:07:19.232Z,2.80
2023-04-27T20:09:47.412Z,2.87
2023-04-27T20:12:37.186Z,2.69
2023-04-27T20:15:06.791Z,2.48
2023-04-27T20:17:34.989Z,2.46
2023-04-27T20:20:10.193Z,2.55
2023-04-27T20:22:39.146Z,2.57
2023-04-27T20:25:08.380Z,2.55
2023-04-27T20:27:36.568Z,2.42
2023-04-27T20:30:05.554Z,2.35
2023-04-27T20:32:34.332Z,2.39
2023-04-27T20:35:05.401Z,2.30
2023-04-27T20:37:33.647Z,2.32
2023-04-27T20:40:01.902Z,2.40
2023-04-27T20:42:31.249Z,2.36
2023-04-27T20:44:59.502Z,2.26
2023-04-27T20:47:27.765Z,2.22
2023-04-27T20:49:56.349Z,2.15
2023-04-27T20:52:27.983Z,2.15
2023-04-27T20:54:58.958Z,2.33
2023-04-27T20:57:27.325Z,2.34
2023-04-27T20:59:56.106Z,2.47
2023-04-27T21:02:24.396Z,2.59
2023-04-27T21:04:53.139Z,2.55
2023-04-27T21:07:21.641Z,2.54
2023-04-27T21:09:51.278Z,2.46
2023-04-27T21:12:19.320Z,2.37
2023-04-27T21:14:47.879Z,2.36
2023-04-27T21:17:16.074Z,2.42
2023-04-27T21:19:44.265Z,2.52
2023-04-27T21:22:12.255Z,2.51
2023-04-27T21:24:41.506Z,2.47
2023-04-27T21:27:11.639Z,2.48
2023-04-27T21:29:39.824Z,2.45
2023-04-27T21:32:08.228Z,2.33
2023-04-27T21:34:36.474Z,2.27
2023-04-27T21:37:04.585Z,2.21
2023-04-27T21:39:32.899Z,2.13
2023-04-27T21:42:01.402Z,2.06
2023-04-27T21:44:31.085Z,1.99
2023-04-27T21:46:59.205Z,2.02
2023-04-27T21:49:27.521Z,2.12
2023-04-27T21:51:55.818Z,2.02
2023-04-27T21:54:23.975Z,2.22
2023-04-27T21:56:52.171Z,2.28
2023-04-27T21:59:20.795Z,2.41
2023-04-27T22:01:50.650Z,2.60
2023-04-27T22:04:20.924Z,2.46
2023-04-27T22:06:53.305Z,2.37
2023-04-27T22:09:21.400Z,2.39
2023-04-27T22:11:49.647Z,2.52
2023-04-27T22:14:18.043Z,2.55
2023-04-27T22:16:46.753Z,2.55
2023-04-27T22:19:17.965Z,2.66
2023-04-27T22:21:46.302Z,2.67
2023-04-27T22:24:14.667Z,2.66
2023-04-27T22:26:43.038Z,2.57
2023-04-27T22:29:11.940Z,2.38
2023-04-27T22:31:40.188Z,2.30
2023-04-27T22:34:08.653Z,2.28
2023-04-27T22:36:38.555Z,2.19
2023-04-27T22:39:07.216Z,2.14
2023-04-27T22:41:36.181Z,2.21
2023-04-27T22:44:04.289Z,2.26
2023-04-27T22:46:32.775Z,2.40
2023-04-27T22:49:01.528Z,2.53
2023-04-27T22:51:29.927Z,2.54
2023-04-27T22:53:59.553Z,2.67
2023-04-27T22:56:27.755Z,2.67
2023-04-27T22:58:55.843Z,2.60
2023-04-27T23:01:24.055Z,2.66
2023-04-27T23:03:53.323Z,2.50
2023-04-27T23:06:22.203Z,2.48
2023-04-27T23:08:51.706Z,2.35
2023-04-27T23:11:21.190Z,2.30
2023-04-27T23:13:50.650Z,2.36
2023-04-27T23:16:18.875Z,2.35
2023-04-27T23:18:47.425Z,2.25
2023-04-27T23:21:15.728Z,2.28
2023-04-27T23:23:43.832Z,2.24
2023-04-27T23:26:16.391Z,2.14
2023-04-27T23:28:45.888Z,2.19
2023-04-27T23:31:14.275Z,2.20
2023-04-27T23:33:42.484Z,2.17
2023-04-27T23:36:10.545Z,2.17
2023-04-27T23:38:38.762Z,2.15
2023-04-27T23:41:06.890Z,2.15
2023-04-27T23:43:35.532Z,2.22
2023-04-27T23:46:05.839Z,2.07
2023-04-27T23:48:34.159Z,2.00
2023-04-27T23:51:03.313Z,1.88
2023-04-27T23:53:32.642Z,1.90
2023-04-27T23:56:00.898Z,1.87
2023-04-27T23:58:29.150Z,1.83
